Barhom II — 5IM534 — position and weather

sailwx.info

Track history (hours):
 
Tides and Currents Weather Stations Pressure Air Temp Water Temp Dewpoint Dewpoint Depression Visibility Wind Speed Wind Dir Waves Ship Positions

Barhom II

Last reported at 2015-May-28 07:05 UTC. Time now 2015-May-29 00:17 UTC.
Position N 37°33' W 001°07'.

Length 83 m; draft 4.3 m.

Type: Cargo ship. MMSI: 677043400.

Date/timePositionNaut miles runAvg speedWind from/ knotsBaromVisibWave heightAir tempDewpointWater temp
2015-May-28 07:05N 37°33' W 001°07'0 0.0
2015-May-27 04:20N 37°33' W 001°07'0 0.0
2015-May-27 01:21N 37°33' W 001°07'0 0.0
2015-May-26 23:12N 37°33' W 001°07'2 0.4
2015-May-26 17:29N 37°33' W 001°04'8 8.8
2015-May-26 16:32N 37°32' W 000°54'9 9.5
2015-May-26 15:33N 37°29' W 000°43'1010.0
2015-May-26 14:32N 37°27' W 000°30'7 7.0
2015-May-26 13:30N 37°22' W 000°24'3 1.7
2015-May-26 11:33N 37°24' W 000°21'6 6.3
2015-May-26 10:34N 37°25' W 000°13'8 7.7
2015-May-26 09:33N 37°24' W 000°03'8 7.6
2015-May-26 08:33N 37°24' E 000°06'8 7.7
2015-May-26 07:33N 37°24' E 000°16'8 8.1
2015-May-26 06:33N 37°31' E 000°21'8 7.9
2015-May-26 05:33N 37°28' E 000°30'11 8.5
2015-May-26 04:14N 37°26' E 000°44'7 8.7
2015-May-26 03:27N 37°24' E 000°52'21 9.2
2015-May-26 01:10N 37°21' E 001°18'  
Track history (hours):
 
Tides and Currents Weather Stations Pressure Air Temp Water Temp Dewpoint Dewpoint Depression Visibility Wind Speed Wind Dir Waves Ship Positions

Barhom II

Last reported at 2015-May-28 07:05 UTC. Time now 2015-May-29 00:17 UTC.
Position N 37°33' W 001°07'.

Length 83 m; draft 4.3 m.

Type: Cargo ship. MMSI: 677043400.

Date/timePositionNaut miles runAvg speedWind from/ knotsBaromVisibWave heightAir tempDewpointWater temp
2015-May-28 07:05N 37°33' W 001°07'0 0.0
2015-May-27 04:20N 37°33' W 001°07'0 0.0
2015-May-27 01:21N 37°33' W 001°07'0 0.0
2015-May-26 23:12N 37°33' W 001°07'2 0.4
2015-May-26 17:29N 37°33' W 001°04'8 8.8
2015-May-26 16:32N 37°32' W 000°54'9 9.5
2015-May-26 15:33N 37°29' W 000°43'1010.0
2015-May-26 14:32N 37°27' W 000°30'7 7.0
2015-May-26 13:30N 37°22' W 000°24'3 1.7
2015-May-26 11:33N 37°24' W 000°21'6 6.3
2015-May-26 10:34N 37°25' W 000°13'8 7.7
2015-May-26 09:33N 37°24' W 000°03'8 7.6
2015-May-26 08:33N 37°24' E 000°06'8 7.7
2015-May-26 07:33N 37°24' E 000°16'8 8.1
2015-May-26 06:33N 37°31' E 000°21'8 7.9
2015-May-26 05:33N 37°28' E 000°30'11 8.5
2015-May-26 04:14N 37°26' E 000°44'7 8.7
2015-May-26 03:27N 37°24' E 000°52'21 9.2
2015-May-26 01:10N 37°21' E 001°18'  

Dump ship's entire track history